KHQU

Thomson-McDuffie County Airport

Thomson, Georgia, USA
METAR KHQU 170015Z AUTO 32005KT 10SM CLR 09/07 A3012 RMK AO2 T00890069
Observed Flight Rules
Dec-17 @ 00:15 UTC (20 minutes ago) Visual Flight Rules
Wind Visibility Clouds
320° at 5 knots 10 miles
  • Clear skies
Temperatures Readings
Current 9°C / 48°F
Dewpoint 7°C / 45°F
Humidity 87%
Altimeter 30.12" Hg
Pressure 1020 hPa
Elevation 152
METAR KHQU 170015Z AUTO 32005KT 10SM CLR 09/07 A3012 RMK AO2 T00890069
Observed Flight Rules
Dec-17 @ 00:15 UTC
(20 minutes ago)
VFR
Wind Visibility
320° at 5 knots 10 miles
Clouds
  • Clear skies
Temperature Dewpoint
9°C / 48°F 7°C / 45°F
Humidity Altimeter Pressure
87% 30.12" Hg 1020 hPa